Galveston, TX

6:54 AM CDT on September 19, 2014 (GMT -0500)
TAMUG Waterfront Operations | Change Station
CLOSE
Current Station
Personal Weather Station
Location: Galveston, TX
Elevation: 20 ft
Nearby Weather Stations

Elev 20 ft 29.31 °N, 94.82 °W | Updated 1 second ago

Rain
Rain
75.2 °F
Feels Like 73 °F
N
6.9
Wind Variable Wind from West
Gusts 9.8 mph

Today
High -- | Low -- °F
--% Chance of Precip.
Yesterday
High -- | Low -- °F
Precip. -- in
7:06 AM 7:19 PM
Waning Crescent, 19% visible
Pressure 29.88 in
Visibility 3.0 miles
Clouds Few 2100 ft
Mostly Cloudy 3900 ft
Overcast 7000 ft
Heat Index 73 °F
Dew Point 75 °F
Humidity 99%
Rainfall 0.81 in
Snow Depth Not available.
UV 0 out of 12
Pollen 7.70 out of 12
Ozone Good
PM2.5 Good
Flu Activity Not available.
SPECI KGLS 191131Z 00000KT 3SM +RA BR FEW021 BKN039 OVC070 24/23 A2988 RMK AO2 LTG DSNT S AND SW P0027 T02390233

More Conditions Fewer Conditions

Pressure 29.88 in
Visibility 3.0 miles
Clouds Few 2100 ft
Mostly Cloudy 3900 ft
Overcast 7000 ft
Heat Index 73 °F
Dew Point 75 °F
Humidity 99%
Rainfall 0.81 in
Snow Depth Not available.
UV 0 out of 12
Pollen 7.70 out of 12
Ozone Good
PM2.5 Good
Flu Activity Not available.
SPECI KGLS 191131Z 00000KT 3SM +RA BR FEW021 BKN039 OVC070 24/23 A2988 RMK AO2 LTG DSNT S AND SW P0027 T02390233

More Conditions Fewer Conditions

10-Day Weather Forecast

Almanac

Astronomy

Sep. 19, 2014 Rise Set
Actual Time 7:06 AM CDT 7:19 PM CDT
Civil Twilight 6:42 AM CDT 7:43 PM CDT
Nautical Twilight 6:14 AM CDT 8:10 PM CDT
Astronomical Twilight 5:46 AM CDT 8:38 PM CDT
Moon 3:07 AM CDT 4:35 PM CDT
Length of Visible Light 13h 00m
Length of Day
12h 13m
Tomorrow will be 1m 45s shorter.
Waning Crescent, 19% of the Moon is Illuminated
Today
Waning Crescent
Sep 24
New
Oct 1
First Quarter
Oct 8
Full
Oct 15
Last Quarter

Today's Extremes

State Highs State Lows

Community

WunderPhotos

Upload Photos

1,754,597 photos uploaded!

Nearby

Air Quality

  Air Quality AQ Index Pollutant
Yesterday Good
PM2.5
Yesterday Good
OZONE
Current Good
PM2.5
Current Good
OZONE
Friday Good
OZONE
Friday Good
PM10
Saturday Good
OZONE
Saturday Good
PM10
Sunday Good
OZONE
Sunday Good
PM10

Snow Depth

Station Depth Elevation
No new snow has been reported.

Earthquake Activity

City Distance Mag. Time & Date
No recent earthquake activity has been reported nearby.
Minimum magnitude displayed is 2.5.

Coastal Water Temperatures

Place Temperature
Galveston Bay (North Jetty), TX 82.0 °F
USCG Freeport, TX 82.9 °F
Galveston Pier TX 82.0 °F
Eagle Point, TX 80.1 °F
Rollover Pass, TX 78.1 °F

Nearby Weather Stations